createdAt,value
2023-04-23T00:04:03.852Z,714.00
2023-04-23T00:09:02.912Z,713.00
2023-04-23T00:14:02.158Z,705.00
2023-04-23T00:19:02.446Z,710.00
2023-04-23T00:24:02.702Z,701.00
2023-04-23T00:29:00.933Z,723.00
2023-04-23T00:33:59.185Z,696.00
2023-04-23T00:38:58.443Z,700.00
2023-04-23T00:43:57.709Z,692.00
2023-04-23T00:48:56.991Z,692.00
2023-04-23T00:53:58.257Z,688.00
2023-04-23T00:58:55.497Z,683.00
2023-04-23T01:03:54.827Z,682.00
2023-04-23T01:08:54.992Z,676.00
2023-04-23T01:13:53.244Z,686.00
2023-04-23T01:18:52.559Z,675.00
2023-04-23T01:23:53.868Z,687.00
2023-04-23T01:28:52.136Z,684.00
2023-04-23T01:33:50.442Z,680.00
2023-04-23T01:38:49.727Z,677.00
2023-04-23T01:43:49.012Z,673.00
2023-04-23T01:48:48.276Z,672.00
2023-04-23T01:53:47.588Z,665.00
2023-04-23T01:58:46.951Z,669.00
2023-04-23T02:03:47.265Z,665.00
2023-04-23T02:08:46.246Z,663.00
2023-04-23T02:13:44.532Z,670.00
2023-04-23T02:18:44.828Z,665.00
2023-04-23T02:23:43.103Z,676.00
2023-04-23T02:28:43.349Z,665.00
2023-04-23T02:33:42.614Z,665.00
2023-04-23T02:38:40.857Z,662.00
2023-04-23T02:43:42.189Z,649.00
2023-04-23T02:48:40.428Z,642.00
2023-04-23T02:53:38.660Z,632.00
2023-04-23T02:58:38.926Z,636.00
2023-04-23T03:03:38.409Z,635.00
2023-04-23T03:08:36.482Z,640.00
2023-04-23T03:13:36.782Z,634.00
2023-04-23T03:18:36.019Z,634.00
2023-04-23T03:23:34.282Z,629.00
2023-04-23T03:28:33.547Z,629.00
2023-04-23T03:33:34.831Z,630.00
2023-04-23T03:38:33.130Z,621.00
2023-04-23T03:43:31.379Z,638.00
2023-04-23T03:48:31.640Z,645.00
2023-04-23T03:53:29.943Z,630.00
2023-04-23T03:58:29.238Z,627.00
2023-04-23T04:03:28.817Z,632.00
2023-04-23T04:08:28.703Z,641.00
2023-04-23T04:13:28.983Z,635.00
2023-04-23T04:18:28.229Z,635.00
2023-04-23T04:23:27.512Z,631.00
2023-04-23T04:28:24.770Z,625.00
2023-04-23T04:33:24.054Z,621.00
2023-04-23T04:38:23.329Z,636.00
2023-04-23T04:43:23.582Z,627.00
2023-04-23T04:48:20.897Z,625.00
2023-04-23T04:53:21.149Z,629.00
2023-04-23T04:58:20.433Z,625.00
2023-04-23T05:03:19.896Z,628.00
2023-04-23T05:08:18.872Z,623.00
2023-04-23T05:13:18.170Z,617.00
2023-04-23T05:18:18.478Z,615.00
2023-04-23T05:23:16.715Z,622.00
2023-04-23T05:28:16.007Z,626.00
2023-04-23T05:33:16.277Z,617.00
2023-04-23T05:38:14.580Z,618.00
2023-04-23T05:43:13.863Z,623.00
2023-04-23T05:48:14.139Z,626.00
2023-04-23T05:53:12.414Z,617.00
2023-04-23T05:58:11.690Z,618.00
2023-04-23T06:03:12.112Z,614.00
2023-04-23T06:08:10.211Z,615.00
2023-04-23T06:13:09.492Z,611.00
2023-04-23T06:18:08.937Z,606.00
2023-04-23T06:23:09.044Z,600.00
2023-04-23T06:28:07.343Z,603.00
2023-04-23T06:33:06.650Z,605.00
2023-04-23T06:38:05.977Z,616.00
2023-04-23T06:43:06.244Z,604.00
2023-04-23T06:48:04.555Z,609.00
2023-04-23T06:53:02.817Z,609.00
2023-04-23T06:58:04.121Z,609.00
2023-04-23T07:03:03.509Z,614.00
2023-04-23T07:08:01.687Z,617.00
2023-04-23T07:13:00.850Z,615.00
2023-04-23T07:18:00.197Z,610.00
2023-04-23T07:22:59.277Z,613.00
2023-04-23T07:27:56.583Z,637.00
2023-04-23T07:32:58.919Z,631.00
2023-04-23T07:37:59.165Z,628.00
2023-04-23T07:42:56.412Z,623.00
2023-04-23T07:47:56.732Z,617.00
2023-04-23T07:52:55.017Z,624.00
2023-04-23T07:57:55.294Z,611.00
2023-04-23T08:02:53.724Z,626.00
2023-04-23T08:07:52.730Z,632.00
2023-04-23T08:12:53.039Z,629.00
2023-04-23T08:17:51.316Z,652.00
2023-04-23T08:22:51.572Z,655.00
2023-04-23T08:27:51.856Z,659.00
2023-04-23T08:32:51.331Z,651.00
2023-04-23T08:37:49.469Z,671.00
2023-04-23T08:42:47.747Z,666.00
2023-04-23T08:47:47.034Z,665.00
2023-04-23T08:52:46.316Z,670.00
2023-04-23T08:57:47.586Z,683.00
2023-04-23T09:02:44.906Z,687.00
2023-04-23T09:07:45.043Z,692.00
2023-04-23T09:12:43.352Z,674.00
2023-04-23T09:17:42.431Z,672.00
2023-04-23T09:22:43.169Z,643.00
2023-04-23T09:27:41.880Z,656.00
2023-04-23T09:32:40.190Z,648.00
2023-04-23T09:37:40.443Z,640.00
2023-04-23T09:42:38.692Z,669.00
2023-04-23T09:47:38.006Z,669.00
2023-04-23T09:52:38.111Z,641.00
2023-04-23T09:57:37.394Z,654.00
2023-04-23T10:02:35.715Z,643.00
2023-04-23T10:07:34.792Z,634.00
2023-04-23T10:12:52.057Z,621.00
2023-04-23T10:17:34.249Z,628.00
2023-04-23T10:22:32.551Z,595.00
2023-04-23T10:27:40.363Z,620.00
2023-04-23T10:32:31.174Z,629.00
2023-04-23T10:37:30.295Z,611.00
2023-04-23T10:42:29.599Z,626.00
2023-04-23T10:47:30.967Z,611.00
2023-04-23T10:52:28.058Z,614.00
2023-04-23T10:57:27.364Z,614.00
2023-04-23T11:02:27.964Z,625.00
2023-04-23T11:07:25.971Z,607.00
2023-04-23T11:12:26.341Z,627.00
2023-04-23T11:17:25.593Z,603.00
2023-04-23T11:22:23.816Z,611.00
2023-04-23T11:27:23.088Z,601.00
2023-04-23T11:32:22.405Z,592.00
2023-04-23T11:37:22.502Z,603.00
2023-04-23T11:42:20.778Z,597.00
2023-04-23T11:47:20.067Z,616.00
2023-04-23T11:52:20.347Z,600.00
2023-04-23T11:57:18.629Z,614.00
2023-04-23T12:02:17.989Z,626.00
2023-04-23T12:07:26.248Z,602.00
2023-04-23T12:12:16.323Z,611.00
2023-04-23T12:17:17.617Z,597.00
2023-04-23T12:22:14.865Z,608.00
2023-04-23T12:27:14.159Z,606.00
2023-04-23T12:32:14.492Z,608.00
2023-04-23T12:37:11.748Z,606.00
2023-04-23T12:42:11.042Z,600.00
2023-04-23T12:47:12.328Z,613.00
2023-04-23T12:52:13.417Z,599.00
2023-04-23T12:57:09.751Z,596.00
2023-04-23T13:02:09.212Z,578.00
2023-04-23T13:07:08.379Z,596.00
2023-04-23T13:12:07.676Z,580.00
2023-04-23T13:17:06.951Z,594.00
2023-04-23T13:22:08.257Z,592.00
2023-04-23T13:27:06.531Z,725.00
2023-04-23T13:32:04.890Z,776.00
2023-04-23T13:37:03.973Z,619.00
2023-04-23T13:42:09.357Z,557.00
2023-04-23T13:47:03.394Z,578.00
2023-04-23T13:52:02.705Z,476.00
2023-04-23T13:57:01.005Z,486.00
2023-04-23T14:02:00.267Z,440.00
2023-04-23T14:07:00.539Z,670.00
2023-04-23T14:11:59.851Z,661.00
2023-04-23T14:16:59.111Z,505.00
2023-04-23T14:21:59.392Z,647.00
2023-04-23T14:26:57.681Z,584.00
2023-04-23T14:31:55.981Z,543.00
2023-04-23T14:36:55.248Z,599.00
2023-04-23T14:41:55.545Z,488.00
2023-04-23T14:46:53.813Z,626.00
2023-04-23T14:51:53.110Z,634.00
2023-04-23T14:56:52.396Z,654.00
2023-04-23T15:01:51.717Z,653.00
2023-04-23T15:06:51.051Z,644.00
2023-04-23T15:11:50.164Z,634.00
2023-04-23T15:16:50.644Z,624.00
2023-04-23T15:21:48.764Z,622.00
2023-04-23T15:26:48.032Z,637.00
2023-04-23T15:31:48.379Z,648.00
2023-04-23T15:36:45.667Z,650.00
2023-04-23T15:41:46.305Z,675.00
2023-04-23T15:46:45.194Z,678.00
2023-04-23T15:51:44.486Z,672.00
2023-04-23T15:56:43.861Z,636.00
2023-04-23T16:01:43.151Z,654.00
2023-04-23T16:06:42.524Z,671.00
2023-04-23T16:11:41.463Z,652.00
2023-04-23T16:16:41.715Z,664.00
2023-04-23T16:21:40.311Z,632.00
2023-04-23T16:26:41.242Z,671.00
2023-04-23T16:31:38.893Z,648.00
2023-04-23T16:36:37.698Z,650.00
2023-04-23T16:41:41.985Z,648.00
2023-04-23T16:46:36.300Z,676.00
2023-04-23T16:51:37.646Z,691.00
2023-04-23T16:56:35.741Z,665.00
2023-04-23T17:01:34.952Z,670.00
2023-04-23T17:06:34.045Z,639.00
2023-04-23T17:11:33.321Z,652.00
2023-04-23T17:16:32.019Z,697.00
2023-04-23T17:21:30.895Z,719.00
2023-04-23T17:26:32.448Z,685.00
2023-04-23T17:31:30.609Z,675.00
2023-04-23T17:36:28.349Z,657.00
2023-04-23T17:41:28.809Z,659.00
2023-04-23T17:46:27.315Z,725.00
2023-04-23T17:51:26.468Z,670.00
2023-04-23T17:56:25.713Z,692.00
2023-04-23T18:01:27.069Z,650.00
2023-04-23T18:06:24.163Z,651.00
2023-04-23T18:11:24.147Z,638.00
2023-04-23T18:16:22.508Z,613.00
2023-04-23T18:21:23.984Z,625.00
2023-04-23T18:26:21.012Z,577.00
2023-04-23T18:31:20.515Z,643.00
2023-04-23T18:36:19.689Z,624.00
2023-04-23T18:41:18.855Z,661.00
2023-04-23T18:46:17.983Z,696.00
2023-04-23T18:51:17.122Z,646.00
2023-04-23T18:56:16.084Z,666.00
2023-04-23T19:01:16.734Z,695.00
2023-04-23T19:06:15.549Z,658.00
2023-04-23T19:11:14.867Z,763.00
2023-04-23T19:16:14.596Z,733.00
2023-04-23T19:21:12.722Z,751.00
2023-04-23T19:26:10.970Z,707.00
2023-04-23T19:31:12.354Z,656.00
2023-04-23T19:36:10.551Z,699.00
2023-04-23T19:41:10.765Z,658.00
2023-04-23T19:46:09.549Z,705.00
2023-04-23T19:51:08.277Z,686.00
2023-04-23T19:56:07.577Z,729.00
2023-04-23T20:01:06.532Z,726.00
2023-04-23T20:06:06.877Z,733.00
2023-04-23T20:11:07.376Z,716.00
2023-04-23T20:16:04.322Z,702.00
2023-04-23T20:21:03.600Z,747.00
2023-04-23T20:26:02.893Z,751.00
2023-04-23T20:31:02.155Z,759.00
2023-04-23T20:36:01.724Z,767.00
2023-04-23T20:41:00.661Z,817.00
2023-04-23T20:46:01.011Z,851.00
2023-04-23T20:50:59.270Z,873.00
2023-04-23T20:55:58.534Z,837.00
2023-04-23T21:00:57.854Z,824.00
2023-04-23T21:05:58.147Z,846.00
2023-04-23T21:10:57.386Z,827.00
2023-04-23T21:15:56.672Z,769.00
2023-04-23T21:20:54.930Z,775.00
2023-04-23T21:25:54.190Z,761.00
2023-04-23T21:30:54.452Z,772.00
2023-04-23T21:35:52.717Z,779.00
2023-04-23T21:40:51.963Z,784.00
2023-04-23T21:45:52.224Z,776.00
2023-04-23T21:50:50.506Z,792.00
2023-04-23T21:55:50.812Z,779.00
2023-04-23T22:00:49.187Z,796.00
2023-04-23T22:05:49.324Z,788.00
2023-04-23T22:10:49.608Z,796.00
2023-04-23T22:15:46.892Z,817.00
2023-04-23T22:20:47.166Z,802.00
2023-04-23T22:25:45.461Z,810.00
2023-04-23T22:30:45.751Z,811.00
2023-04-23T22:35:44.043Z,829.00
2023-04-23T22:40:45.322Z,840.00
2023-04-23T22:45:42.644Z,826.00
2023-04-23T22:50:41.726Z,830.00
2023-04-23T22:55:42.026Z,817.00
2023-04-23T23:00:41.236Z,850.00
2023-04-23T23:05:40.479Z,845.00
2023-04-23T23:10:38.700Z,820.00
2023-04-23T23:15:38.976Z,851.00
2023-04-23T23:20:37.243Z,830.00
2023-04-23T23:25:36.511Z,799.00
2023-04-23T23:30:35.779Z,767.00
2023-04-23T23:35:35.062Z,815.00
2023-04-23T23:40:35.322Z,920.00
2023-04-23T23:45:36.638Z,985.00
2023-04-23T23:50:33.890Z,649.00
2023-04-23T23:55:33.163Z,879.00
